Details From MMTO - Licenciado Adolfo Lopez Mateos Intl
To MMMY - General Mariano Escobedo Intl
Flight Number -
Tags Generated
Created
Modified
Stats Distance 388 nm / 718 km
Max Altitude 0 ft / 0 m
Waypoints 3
Social Downloads 3
Likes 0
Share VATSIM

Download

Looking for another format? Having issues loading an existing format? Contact us
Advertisement - Login to hide

Notes

Generated

Route

MMTO MTY MMMY

ID Type Via Altitude Latitude Longitude Leg Dist Tot Dist Heading (true) Name
O MMTO APT - 0 ft / 0 m 19.35450˚ -99.57388˚ - 0 nm - -
MTY VOR - 0 ft / 0 m 25.77289˚ -100.10397˚ 386 nm 386 nm 356° / 356° MONTERREY VOR-DME
O MMMY APT - 0 ft / 0 m 25.78809˚ -100.10963˚ 0 nm 387 nm 341° / 341° -

Altitude Profile

Advertisement - Login to hide

Weather


0- 5 10 15 20 25 30 35+ Temperature / ° C

Clouds and Precipitation
Forecast for 2017-12-18 18:00 UTC. Updated an hour ago

Ground ~20,000 ft ~40,000 ft Winds

MMTO

Details ICAO MMTO (TLC)
Name Toluca Lic. Adolfo Lopez Mateos
Region Mexico
Timezone America/Mexico_City (UTC-6.0)
Stats Elevation 8,466 ft / 2,580 m (AMSL)
Location 19.337072° -99.566007°
Runways 1
Magnetic Variation 4.852° E

METAR

MMTO 181614Z 00000KT 2SM BR HZ BKN200 13/03 A3047 RMK 8/001

Decode

TAF

TAF AMD MMTO 181242Z 1813/1918 00000KT 1/4SM FG VV003 TX19/1821Z TN01/1813Z FM181500 04005KT 3SM BR BKN015 FM181800 05008KT P6SM SCT015 SCT070 FM190600 06005KT P6SM SCT070 SCT200 BECMG 1910/1912 08004KT 5SM HZ

Decode

Departure Runways

ID Width Length Bearing (true) Bearing (mag) Surface Threshold Offset Overrun Length
15 148 ft / 45 m 13,825 ft / 4,214 m 156.90° 152.05° Asphalt 0 ft / 0 m 194 ft / 59 m
33 148 ft / 45 m 13,825 ft / 4,214 m 336.91° 332.06° Asphalt 545 ft / 166 m 194 ft / 59 m

MMMY

Details ICAO MMMY (MTY)
Name General Mariano Escobedo Intl
Region Mexico
Timezone America/Monterrey (UTC-6.0)
Stats Elevation 1,278 ft / 390 m (AMSL)
Location 25.778652° -100.105852°
Runways 2
Magnetic Variation 5.034° E

METAR

Not found

TAF

TAF MMMY 180545Z 1806/1912 00000KT 3/4SM BR VV003 TX13/1822Z TN08/1812Z TEMPO 1810/1814 1/4SM -DZ FG VV001 FM181800 09008KT 3SM BR BKN010 BKN080 BECMG 1905/1907 12006KT 5SM HZ SCT015 BKN090

Decode

Destination Runways

ID Width Length Bearing (true) Bearing (mag) Surface Threshold Offset Overrun Length
11 148 ft / 45 m 9,905 ft / 3,019 m 121.28° 116.25° Asphalt 0 ft / 0 m 200 ft / 61 m
16 98 ft / 30 m 5,931 ft / 1,808 m 165.55° 160.52° Asphalt 0 ft / 0 m 215 ft / 66 m
29 148 ft / 45 m 9,905 ft / 3,019 m 301.29° 296.26° Asphalt 0 ft / 0 m 0 ft / 0 m
34 98 ft / 30 m 5,931 ft / 1,808 m 345.55° 340.52° Asphalt 0 ft / 0 m 215 ft / 66 m

Approach Navaids

Runway Type Ident Frequency Range Bearing (true) Bearing (mag) Slope Elevation
29 Localiser IMTY 111.10 MHz 18 nm / 33 km 301.38° 296.35° - 1,278 ft / 390 m (AMSL)
29 Glidescope IMTY 111.10 MHz 10 nm / 19 km 301.29° 296.25° 3.00° 1,278 ft / 390 m (AMSL)
29 DME IMTY 111.10 MHz 18 nm / 33 km - - - 1,278 ft / 390 m (AMSL)

Popular Alternatives